Guerneville, CA

7:15 PM PST on February 12, 2016 (GMT -0800)
Stumptown Brewery | | Change Station
CLOSE
Current Station
Personal Weather Station
Location: Guerneville, CA
Elevation: 55 ft
Nearby Weather Stations

Elev 55 ft 38.51 °N, 122.98 °W | Updated 1 minute ago

Mostly Cloudy
Mostly Cloudy
59.0 °F
Feels Like 59.0 °F
N
0.0
Wind Variable Wind from SW
Gusts 1.0 mph

Today
High -- | Low -- °F
--% Chance of Precip.
Yesterday
High -- | Low -- °F
Precip. -- in
Pressure 30.15 in
Visibility 10.0 miles
Clouds Clear
Dew Point 54 °F
Humidity 85%
Rainfall 0.00 in
Snow Depth Not available.
7:06 AM 5:46 PM
Waxing Crescent, 26% visible
METAR KSTS 130253Z 18004KT 10SM CLR 16/13 A3017 RMK AO2 SLP210 T01610128 53008
Pressure 30.15 in
Visibility 10.0 miles
Clouds Clear
Dew Point 54 °F
Humidity 85%
Rainfall 0.00 in
Snow Depth Not available.
7:06 AM 5:46 PM
Waxing Crescent, 26% visible
METAR KSTS 130253Z 18004KT 10SM CLR 16/13 A3017 RMK AO2 SLP210 T01610128 53008

10-Day Weather Forecast

Almanac

Astronomy

Feb. 12, 2016 Rise Set
Actual Time
Civil Twilight
Nautical Twilight
Astronomical Twilight
Moon
Length of Visible Light
Length of Day
Tomorrow will be .
, % of the Moon is Illuminated

Today's Extremes

State Highs State Lows

Community

WunderPhotos

Upload Photos

1,892,480 photos uploaded!

WunderBlog® & News

Nearby

Air Quality

  Air Quality AQ Index Pollutant
Not available.

Snow Depth

Station Depth Elevation

Earthquake Activity

City Distance Mag. Time & Date
Minimum magnitude displayed is 2.5.

Coastal Water Temperatures

Place Temperature

Stations

Nearby Weather Stations

Station Location Temp. Windchill Dew Point Humidity Wind Precip. Elev Updated Type
                   

Watches & Warnings

There are currently no watches in effect.